sensor_id;sensor_type;location;lat;lon;timestamp;pressure;altitude;pressure_sealevel;temperature;humidity
33454;BME280;39400;49.744;7.012;2023-05-03T00:01:36;96827.25;;;4.71;98.69
33454;BME280;39400;49.744;7.012;2023-05-03T00:04:02;96827.25;;;4.71;99.55
33454;BME280;39400;49.744;7.012;2023-05-03T00:06:27;96826.31;;;4.67;100.00
33454;BME280;39400;49.744;7.012;2023-05-03T00:08:52;96826.88;;;4.61;100.00
33454;BME280;39400;49.744;7.012;2023-05-03T00:11:18;96823.81;;;4.62;100.00
33454;BME280;39400;49.744;7.012;2023-05-03T00:13:43;96815.81;;;4.57;100.00
33454;BME280;39400;49.744;7.012;2023-05-03T00:16:08;96814.22;;;4.56;100.00
33454;BME280;39400;49.744;7.012;2023-05-03T00:18:34;96818.75;;;4.52;100.00
33454;BME280;39400;49.744;7.012;2023-05-03T00:20:59;96815.56;;;4.50;100.00
33454;BME280;39400;49.744;7.012;2023-05-03T00:23:25;96806.94;;;4.48;100.00
33454;BME280;39400;49.744;7.012;2023-05-03T00:25:54;96809.19;;;4.46;100.00
33454;BME280;39400;49.744;7.012;2023-05-03T00:28:20;96803.47;;;4.39;100.00
33454;BME280;39400;49.744;7.012;2023-05-03T00:30:45;96812.25;;;4.44;100.00
33454;BME280;39400;49.744;7.012;2023-05-03T00:33:10;96798.81;;;4.60;100.00
33454;BME280;39400;49.744;7.012;2023-05-03T00:35:36;96810.66;;;4.64;100.00
33454;BME280;39400;49.744;7.012;2023-05-03T00:38:01;96797.47;;;4.66;100.00
33454;BME280;39400;49.744;7.012;2023-05-03T00:40:26;96801.47;;;4.69;100.00
33454;BME280;39400;49.744;7.012;2023-05-03T00:42:52;96796.56;;;4.62;100.00
33454;BME280;39400;49.744;7.012;2023-05-03T00:45:17;96801.09;;;4.58;100.00
33454;BME280;39400;49.744;7.012;2023-05-03T00:47:43;96797.88;;;4.56;100.00
33454;BME280;39400;49.744;7.012;2023-05-03T00:50:09;96788.59;;;4.57;100.00
33454;BME280;39400;49.744;7.012;2023-05-03T00:52:34;96788.44;;;4.53;100.00
33454;BME280;39400;49.744;7.012;2023-05-03T00:55:00;96779.97;;;4.55;100.00
33454;BME280;39400;49.744;7.012;2023-05-03T00:57:27;96793.09;;;4.53;100.00
33454;BME280;39400;49.744;7.012;2023-05-03T00:59:54;96789.94;;;4.51;100.00
33454;BME280;39400;49.744;7.012;2023-05-03T01:02:20;96790.59;;;4.48;100.00
33454;BME280;39400;49.744;7.012;2023-05-03T01:04:46;96799.91;;;4.47;100.00
33454;BME280;39400;49.744;7.012;2023-05-03T01:18:25;96776.00;;;4.32;100.00
33454;BME280;39400;49.744;7.012;2023-05-03T01:20:54;96788.47;;;4.33;100.00
33454;BME280;39400;49.744;7.012;2023-05-03T01:25:51;96792.31;;;4.32;100.00
33454;BME280;39400;49.744;7.012;2023-05-03T01:28:17;96792.13;;;4.16;100.00
33454;BME280;39400;49.744;7.012;2023-05-03T01:30:42;96793.19;;;4.23;100.00
33454;BME280;39400;49.744;7.012;2023-05-03T01:33:13;96789.56;;;4.19;100.00
33454;BME280;39400;49.744;7.012;2023-05-03T01:35:51;96792.47;;;4.14;100.00
33454;BME280;39400;49.744;7.012;2023-05-03T01:38:19;96783.50;;;4.14;100.00
33454;BME280;39400;49.744;7.012;2023-05-03T01:40:50;96792.06;;;4.24;100.00
33454;BME280;39400;49.744;7.012;2023-05-03T01:43:17;96781.84;;;4.21;100.00
33454;BME280;39400;49.744;7.012;2023-05-03T01:45:43;96787.94;;;4.18;100.00
33454;BME280;39400;49.744;7.012;2023-05-03T01:48:15;96782.97;;;4.20;100.00
33454;BME280;39400;49.744;7.012;2023-05-03T01:50:41;96782.31;;;4.23;100.00
33454;BME280;39400;49.744;7.012;2023-05-03T01:53:06;96788.19;;;4.25;100.00
33454;BME280;39400;49.744;7.012;2023-05-03T01:55:31;96785.69;;;4.20;100.00
33454;BME280;39400;49.744;7.012;2023-05-03T01:57:57;96787.00;;;4.14;100.00
33454;BME280;39400;49.744;7.012;2023-05-03T02:00:22;96799.03;;;4.13;100.00
33454;BME280;39400;49.744;7.012;2023-05-03T02:02:48;96793.78;;;4.08;100.00
33454;BME280;39400;49.744;7.012;2023-05-03T02:05:13;96793.78;;;4.08;100.00
33454;BME280;39400;49.744;7.012;2023-05-03T02:07:39;96795.84;;;4.11;100.00
33454;BME280;39400;49.744;7.012;2023-05-03T02:10:05;96797.91;;;4.14;100.00
33454;BME280;39400;49.744;7.012;2023-05-03T02:12:30;96793.13;;;4.11;100.00
33454;BME280;39400;49.744;7.012;2023-05-03T02:14:56;96791.66;;;4.14;100.00
33454;BME280;39400;49.744;7.012;2023-05-03T02:17:21;96792.59;;;4.18;100.00
33454;BME280;39400;49.744;7.012;2023-05-03T02:19:46;96796.72;;;4.24;100.00
33454;BME280;39400;49.744;7.012;2023-05-03T02:22:12;96792.94;;;4.16;100.00
33454;BME280;39400;49.744;7.012;2023-05-03T02:24:37;96797.91;;;4.14;100.00
33454;BME280;39400;49.744;7.012;2023-05-03T02:27:02;96797.91;;;4.14;100.00
33454;BME280;39400;49.744;7.012;2023-05-03T02:29:28;96802.03;;;4.20;100.00
33454;BME280;39400;49.744;7.012;2023-05-03T02:31:53;96785.44;;;4.13;100.00
33454;BME280;39400;49.744;7.012;2023-05-03T02:34:19;96789.81;;;4.05;100.00
33454;BME280;39400;49.744;7.012;2023-05-03T02:36:44;96796.69;;;4.03;100.00
33454;BME280;39400;49.744;7.012;2023-05-03T02:39:09;96799.88;;;4.05;100.00
33454;BME280;39400;49.744;7.012;2023-05-03T02:41:35;96798.53;;;3.90;100.00
33454;BME280;39400;49.744;7.012;2023-05-03T02:44:01;96797.31;;;3.79;100.00
33454;BME280;39400;49.744;7.012;2023-05-03T02:46:26;96805.78;;;3.77;100.00
33454;BME280;39400;49.744;7.012;2023-05-03T02:48:52;96801.75;;;3.84;100.00
33454;BME280;39400;49.744;7.012;2023-05-03T02:51:17;96798.31;;;3.74;100.00
33454;BME280;39400;49.744;7.012;2023-05-03T02:53:42;96802.13;;;3.73;100.00
33454;BME280;39400;49.744;7.012;2023-05-03T02:56:08;96802.25;;;3.86;100.00
33454;BME280;39400;49.744;7.012;2023-05-03T02:58:33;96799.00;;;3.63;100.00
33454;BME280;39400;49.744;7.012;2023-05-03T03:01:00;96788.53;;;3.73;100.00
33454;BME280;39400;49.744;7.012;2023-05-03T03:03:28;96793.59;;;3.84;100.00
33454;BME280;39400;49.744;7.012;2023-05-03T03:05:53;96796.31;;;3.84;100.00
33454;BME280;39400;49.744;7.012;2023-05-03T03:08:19;96795.53;;;3.83;100.00
33454;BME280;39400;49.744;7.012;2023-05-03T03:10:45;96787.00;;;3.93;100.00
33454;BME280;39400;49.744;7.012;2023-05-03T03:13:11;96783.28;;;3.98;100.00
33454;BME280;39400;49.744;7.012;2023-05-03T03:15:37;96788.09;;;3.71;100.00
33454;BME280;39400;49.744;7.012;2023-05-03T03:18:02;96785.16;;;3.76;100.00
33454;BME280;39400;49.744;7.012;2023-05-03T03:20:28;96781.84;;;3.71;100.00
33454;BME280;39400;49.744;7.012;2023-05-03T03:22:53;96786.56;;;3.53;100.00
33454;BME280;39400;49.744;7.012;2023-05-03T03:25:19;96781.50;;;3.43;100.00
33454;BME280;39400;49.744;7.012;2023-05-03T03:27:44;96777.69;;;3.35;100.00
33454;BME280;39400;49.744;7.012;2023-05-03T03:30:11;96778.19;;;3.28;100.00
33454;BME280;39400;49.744;7.012;2023-05-03T03:32:46;96778.53;;;3.27;100.00
33454;BME280;39400;49.744;7.012;2023-05-03T03:35:17;96775.97;;;3.30;100.00
33454;BME280;39400;49.744;7.012;2023-05-03T03:37:42;96778.19;;;3.28;100.00
33454;BME280;39400;49.744;7.012;2023-05-03T03:40:08;96775.53;;;3.20;100.00
33454;BME280;39400;49.744;7.012;2023-05-03T03:42:35;96770.88;;;3.20;100.00
33454;BME280;39400;49.744;7.012;2023-05-03T03:45:01;96771.38;;;3.14;100.00
33454;BME280;39400;49.744;7.012;2023-05-03T03:47:27;96776.03;;;3.13;100.00
33454;BME280;39400;49.744;7.012;2023-05-03T03:49:52;96777.13;;;3.21;100.00
33454;BME280;39400;49.744;7.012;2023-05-03T03:52:18;96776.47;;;3.24;100.00
33454;BME280;39400;49.744;7.012;2023-05-03T03:54:43;96774.22;;;3.26;100.00
33454;BME280;39400;49.744;7.012;2023-05-03T03:57:08;96774.53;;;3.24;100.00
33454;BME280;39400;49.744;7.012;2023-05-03T03:59:34;96773.41;;;3.25;100.00
33454;BME280;39400;49.744;7.012;2023-05-03T04:02:00;96773.75;;;3.24;100.00
33454;BME280;39400;49.744;7.012;2023-05-03T04:04:25;96764.72;;;3.41;100.00
33454;BME280;39400;49.744;7.012;2023-05-03T04:06:52;96766.38;;;3.24;100.00
33454;BME280;39400;49.744;7.012;2023-05-03T04:09:19;96775.38;;;3.16;100.00
33454;BME280;39400;49.744;7.012;2023-05-03T04:11:44;96772.47;;;3.21;100.00
33454;BME280;39400;49.744;7.012;2023-05-03T04:14:11;96770.25;;;3.23;100.00
33454;BME280;39400;49.744;7.012;2023-05-03T04:16:37;96766.44;;;3.07;100.00
33454;BME280;39400;49.744;7.012;2023-05-03T04:19:04;96771.38;;;3.22;100.00
33454;BME280;39400;49.744;7.012;2023-05-03T04:21:32;96768.66;;;3.22;100.00
33454;BME280;39400;49.744;7.012;2023-05-03T04:23:58;96772.63;;;3.25;100.00
33454;BME280;39400;49.744;7.012;2023-05-03T04:26:25;96764.03;;;3.14;100.00
33454;BME280;39400;49.744;7.012;2023-05-03T04:28:51;96764.53;;;3.46;100.00
33454;BME280;39400;49.744;7.012;2023-05-03T04:31:18;96759.06;;;3.54;100.00
33454;BME280;39400;49.744;7.012;2023-05-03T04:33:44;96763.56;;;3.50;100.00
33454;BME280;39400;49.744;7.012;2023-05-03T04:36:09;96760.50;;;3.52;100.00
33454;BME280;39400;49.744;7.012;2023-05-03T04:38:36;96768.72;;;3.43;100.00
33454;BME280;39400;49.744;7.012;2023-05-03T04:41:02;96760.94;;;3.63;100.00
33454;BME280;39400;49.744;7.012;2023-05-03T04:43:28;96758.22;;;3.63;100.00
33454;BME280;39400;49.744;7.012;2023-05-03T04:45:53;96757.41;;;3.62;100.00
33454;BME280;39400;49.744;7.012;2023-05-03T04:48:22;96754.34;;;3.64;100.00
33454;BME280;39400;49.744;7.012;2023-05-03T04:50:47;96752.72;;;3.42;100.00
33454;BME280;39400;49.744;7.012;2023-05-03T04:53:15;96758.00;;;3.47;100.00
33454;BME280;39400;49.744;7.012;2023-05-03T04:55:43;96758.00;;;3.47;100.00
33454;BME280;39400;49.744;7.012;2023-05-03T04:58:10;96756.84;;;3.48;100.00
33454;BME280;39400;49.744;7.012;2023-05-03T05:00:36;96751.91;;;3.50;100.00
33454;BME280;39400;49.744;7.012;2023-05-03T05:03:08;96738.75;;;3.52;100.00
33454;BME280;39400;49.744;7.012;2023-05-03T05:05:34;96735.53;;;3.58;100.00
33454;BME280;39400;49.744;7.012;2023-05-03T05:07:59;96741.72;;;3.68;100.00
33454;BME280;39400;49.744;7.012;2023-05-03T05:10:31;96737.78;;;3.77;100.00
33454;BME280;39400;49.744;7.012;2023-05-03T05:12:57;96737.41;;;3.88;100.00
33454;BME280;39400;49.744;7.012;2023-05-03T05:15:22;96737.50;;;4.00;100.00
33454;BME280;39400;49.744;7.012;2023-05-03T05:17:49;96744.06;;;4.20;100.00
33454;BME280;39400;49.744;7.012;2023-05-03T05:20:14;96738.88;;;4.27;100.00
33454;BME280;39400;49.744;7.012;2023-05-03T05:22:44;96751.56;;;4.44;100.00
33454;BME280;39400;49.744;7.012;2023-05-03T05:25:10;96758.63;;;4.57;100.00
33454;BME280;39400;49.744;7.012;2023-05-03T05:27:35;96756.63;;;4.66;100.00
33454;BME280;39400;49.744;7.012;2023-05-03T05:30:02;96767.56;;;4.79;100.00
33454;BME280;39400;49.744;7.012;2023-05-03T05:32:29;96771.94;;;4.92;100.00
33454;BME280;39400;49.744;7.012;2023-05-03T05:34:55;96776.25;;;5.05;100.00
33454;BME280;39400;49.744;7.012;2023-05-03T05:37:24;96772.66;;;5.13;100.00
33454;BME280;39400;49.744;7.012;2023-05-03T05:39:50;96771.09;;;5.24;100.00
33454;BME280;39400;49.744;7.012;2023-05-03T05:42:17;96774.28;;;5.39;100.00
33454;BME280;39400;49.744;7.012;2023-05-03T05:44:43;96786.56;;;5.57;100.00
33454;BME280;39400;49.744;7.012;2023-05-03T05:47:09;96790.44;;;5.56;100.00
33454;BME280;39400;49.744;7.012;2023-05-03T05:49:35;96792.25;;;5.64;99.80
33454;BME280;39400;49.744;7.012;2023-05-03T05:52:01;96793.41;;;5.76;100.00
33454;BME280;39400;49.744;7.012;2023-05-03T05:54:26;96789.28;;;5.82;98.50
33454;BME280;39400;49.744;7.012;2023-05-03T05:56:52;96782.25;;;5.81;97.69
33454;BME280;39400;49.744;7.012;2023-05-03T05:59:17;96785.53;;;5.86;97.80
33454;BME280;39400;49.744;7.012;2023-05-03T06:01:43;96788.75;;;6.01;97.26
33454;BME280;39400;49.744;7.012;2023-05-03T06:04:09;96793.38;;;6.12;97.91
33454;BME280;39400;49.744;7.012;2023-05-03T06:06:34;96792.91;;;6.23;98.30
33454;BME280;39400;49.744;7.012;2023-05-03T06:08:59;96789.59;;;6.29;98.07
33454;BME280;39400;49.744;7.012;2023-05-03T06:11:25;96784.44;;;6.40;98.31
33454;BME280;39400;49.744;7.012;2023-05-03T06:13:51;96794.34;;;6.45;98.74
33454;BME280;39400;49.744;7.012;2023-05-03T06:16:17;96790.31;;;6.54;97.14
33454;BME280;39400;49.744;7.012;2023-05-03T06:18:43;96790.75;;;6.69;98.20
33454;BME280;39400;49.744;7.012;2023-05-03T06:21:08;96790.13;;;7.03;94.97
33454;BME280;39400;49.744;7.012;2023-05-03T06:23:34;96793.09;;;6.98;96.22
33454;BME280;39400;49.744;7.012;2023-05-03T06:26:01;96800.16;;;6.99;96.76
33454;BME280;39400;49.744;7.012;2023-05-03T06:28:27;96799.72;;;6.97;96.65
33454;BME280;39400;49.744;7.012;2023-05-03T06:30:54;96799.47;;;7.02;95.67
33454;BME280;39400;49.744;7.012;2023-05-03T06:33:19;96804.09;;;7.30;93.77
33454;BME280;39400;49.744;7.012;2023-05-03T06:35:48;96800.94;;;7.28;93.98
33454;BME280;39400;49.744;7.012;2023-05-03T06:38:16;96810.34;;;7.30;93.62
33454;BME280;39400;49.744;7.012;2023-05-03T06:40:44;96804.56;;;7.32;93.06
33454;BME280;39400;49.744;7.012;2023-05-03T06:43:09;96800.94;;;7.44;91.01
33454;BME280;39400;49.744;7.012;2023-05-03T06:45:46;96808.00;;;7.45;92.46
33454;BME280;39400;49.744;7.012;2023-05-03T06:48:12;96804.47;;;7.44;93.58
33454;BME280;39400;49.744;7.012;2023-05-03T06:50:37;96807.31;;;7.63;91.70
33454;BME280;39400;49.744;7.012;2023-05-03T06:53:03;96799.97;;;7.68;90.20
33454;BME280;39400;49.744;7.012;2023-05-03T06:55:28;96812.78;;;7.63;90.87
33454;BME280;39400;49.744;7.012;2023-05-03T06:57:53;96806.94;;;7.81;89.79
33454;BME280;39400;49.744;7.012;2023-05-03T07:00:19;96809.69;;;8.32;88.08
33454;BME280;39400;49.744;7.012;2023-05-03T07:02:45;96805.28;;;8.43;87.00
33454;BME280;39400;49.744;7.012;2023-05-03T07:05:10;96811.34;;;8.37;86.49
33454;BME280;39400;49.744;7.012;2023-05-03T07:07:35;96816.59;;;8.26;87.65
33454;BME280;39400;49.744;7.012;2023-05-03T07:10:01;96820.19;;;8.10;90.11
33454;BME280;39400;49.744;7.012;2023-05-03T07:12:26;96805.78;;;8.33;86.74
33454;BME280;39400;49.744;7.012;2023-05-03T07:14:53;96804.59;;;8.15;88.89
33454;BME280;39400;49.744;7.012;2023-05-03T07:17:18;96799.50;;;8.48;87.87
33454;BME280;39400;49.744;7.012;2023-05-03T07:19:43;96809.75;;;8.51;89.98
33454;BME280;39400;49.744;7.012;2023-05-03T07:22:09;96801.50;;;8.51;88.57
33454;BME280;39400;49.744;7.012;2023-05-03T07:24:34;96804.94;;;8.64;87.78
33454;BME280;39400;49.744;7.012;2023-05-03T07:26:59;96794.47;;;8.89;85.52
33454;BME280;39400;49.744;7.012;2023-05-03T07:29:25;96800.19;;;9.23;83.13
33454;BME280;39400;49.744;7.012;2023-05-03T07:31:50;96798.22;;;8.81;86.89
33454;BME280;39400;49.744;7.012;2023-05-03T07:34:15;96793.97;;;8.84;87.15
33454;BME280;39400;49.744;7.012;2023-05-03T07:36:41;96796.34;;;9.04;84.14
33454;BME280;39400;49.744;7.012;2023-05-03T07:39:06;96803.19;;;8.95;86.96
33454;BME280;39400;49.744;7.012;2023-05-03T07:41:31;96786.47;;;9.23;85.14
33454;BME280;39400;49.744;7.012;2023-05-03T07:43:57;96784.84;;;9.18;84.02
33454;BME280;39400;49.744;7.012;2023-05-03T07:46:22;96790.84;;;9.47;81.92
33454;BME280;39400;49.744;7.012;2023-05-03T07:48:48;96787.66;;;9.22;85.80
33454;BME280;39400;49.744;7.012;2023-05-03T07:51:13;96781.13;;;9.30;85.45
33454;BME280;39400;49.744;7.012;2023-05-03T07:53:39;96783.22;;;9.60;82.78
33454;BME280;39400;49.744;7.012;2023-05-03T07:56:04;96788.38;;;9.65;84.65
33454;BME280;39400;49.744;7.012;2023-05-03T07:58:30;96788.59;;;9.52;85.71
33454;BME280;39400;49.744;7.012;2023-05-03T08:00:55;96776.09;;;10.05;81.81
33454;BME280;39400;49.744;7.012;2023-05-03T08:03:20;96773.31;;;9.78;83.83
33454;BME280;39400;49.744;7.012;2023-05-03T08:05:46;96778.59;;;10.17;82.53
33454;BME280;39400;49.744;7.012;2023-05-03T08:08:11;96773.53;;;9.92;84.44
33454;BME280;39400;49.744;7.012;2023-05-03T08:10:36;96781.44;;;9.97;84.55
33454;BME280;39400;49.744;7.012;2023-05-03T08:13:03;96777.56;;;9.98;86.43
33454;BME280;39400;49.744;7.012;2023-05-03T08:15:29;96773.63;;;9.99;87.07
33454;BME280;39400;49.744;7.012;2023-05-03T08:17:55;96774.47;;;10.04;82.88
33454;BME280;39400;49.744;7.012;2023-05-03T08:20:21;96772.59;;;10.34;83.00
33454;BME280;39400;49.744;7.012;2023-05-03T08:22:47;96781.56;;;10.31;84.79
33454;BME280;39400;49.744;7.012;2023-05-03T08:25:12;96776.59;;;10.40;85.41
33454;BME280;39400;49.744;7.012;2023-05-03T08:27:37;96773.06;;;10.70;81.21
33454;BME280;39400;49.744;7.012;2023-05-03T08:30:03;96781.13;;;10.86;79.93
33454;BME280;39400;49.744;7.012;2023-05-03T08:32:29;96781.16;;;10.89;80.22
33454;BME280;39400;49.744;7.012;2023-05-03T08:34:54;96774.06;;;10.88;78.77
33454;BME280;39400;49.744;7.012;2023-05-03T08:37:20;96782.56;;;10.76;82.38
33454;BME280;39400;49.744;7.012;2023-05-03T08:39:45;96786.66;;;10.89;77.71
33454;BME280;39400;49.744;7.012;2023-05-03T08:42:11;96783.81;;;11.16;75.75
33454;BME280;39400;49.744;7.012;2023-05-03T08:44:36;96781.63;;;10.95;76.25
33454;BME280;39400;49.744;7.012;2023-05-03T08:47:07;96785.25;;;11.03;76.18
33454;BME280;39400;49.744;7.012;2023-05-03T08:49:32;96775.06;;;11.07;76.94
33454;BME280;39400;49.744;7.012;2023-05-03T08:51:59;96772.44;;;10.84;78.56
33454;BME280;39400;49.744;7.012;2023-05-03T08:54:26;96771.00;;;10.97;83.27
33454;BME280;39400;49.744;7.012;2023-05-03T08:56:51;96768.69;;;10.99;82.91
33454;BME280;39400;49.744;7.012;2023-05-03T08:59:17;96755.03;;;11.10;80.25
33454;BME280;39400;49.744;7.012;2023-05-03T09:01:43;96762.31;;;11.29;82.38
33454;BME280;39400;49.744;7.012;2023-05-03T09:04:09;96755.00;;;11.43;76.04
33454;BME280;39400;49.744;7.012;2023-05-03T09:06:36;96759.97;;;11.75;78.14
33454;BME280;39400;49.744;7.012;2023-05-03T09:09:03;96764.25;;;11.69;79.76
33454;BME280;39400;49.744;7.012;2023-05-03T09:11:30;96757.78;;;11.92;77.80
33454;BME280;39400;49.744;7.012;2023-05-03T09:14:17;96760.09;;;11.86;77.94
33454;BME280;39400;49.744;7.012;2023-05-03T09:16:44;96763.97;;;11.81;78.10
33454;BME280;39400;49.744;7.012;2023-05-03T09:19:11;96767.13;;;11.83;81.31
33454;BME280;39400;49.744;7.012;2023-05-03T09:21:38;96754.63;;;11.93;79.08
33454;BME280;39400;49.744;7.012;2023-05-03T09:24:14;96768.03;;;11.95;78.34
33454;BME280;39400;49.744;7.012;2023-05-03T09:26:40;96761.09;;;12.19;75.03
33454;BME280;39400;49.744;7.012;2023-05-03T09:29:06;96766.16;;;12.06;79.39
33454;BME280;39400;49.744;7.012;2023-05-03T09:31:33;96762.50;;;11.95;80.67
33454;BME280;39400;49.744;7.012;2023-05-03T09:33:59;96762.59;;;12.05;83.09
33454;BME280;39400;49.744;7.012;2023-05-03T09:36:25;96757.94;;;12.13;80.24
33454;BME280;39400;49.744;7.012;2023-05-03T09:38:51;96764.28;;;12.24;80.87
33454;BME280;39400;49.744;7.012;2023-05-03T09:41:26;96768.19;;;12.16;80.84
33454;BME280;39400;49.744;7.012;2023-05-03T09:43:52;96767.50;;;12.33;76.33
33454;BME280;39400;49.744;7.012;2023-05-03T09:46:17;96758.97;;;12.60;73.62
33454;BME280;39400;49.744;7.012;2023-05-03T09:48:43;96762.16;;;12.69;76.13
33454;BME280;39400;49.744;7.012;2023-05-03T09:51:11;96762.13;;;12.62;75.50
33454;BME280;39400;49.744;7.012;2023-05-03T09:53:38;96763.38;;;12.72;77.19
33454;BME280;39400;49.744;7.012;2023-05-03T09:56:05;96760.97;;;12.67;75.20
33454;BME280;39400;49.744;7.012;2023-05-03T09:58:32;96753.44;;;12.60;75.44
33454;BME280;39400;49.744;7.012;2023-05-03T10:00:58;96757.38;;;12.59;76.64
33454;BME280;39400;49.744;7.012;2023-05-03T10:03:31;96764.50;;;12.67;74.65
33454;BME280;39400;49.744;7.012;2023-05-03T10:06:00;96751.59;;;12.85;74.19
33454;BME280;39400;49.744;7.012;2023-05-03T10:08:32;96757.94;;;12.97;76.24
33454;BME280;39400;49.744;7.012;2023-05-03T10:10:58;96760.31;;;13.02;74.63
33454;BME280;39400;49.744;7.012;2023-05-03T10:13:23;96754.78;;;13.02;74.17
33454;BME280;39400;49.744;7.012;2023-05-03T10:16:02;96746.56;;;13.16;71.08
33454;BME280;39400;49.744;7.012;2023-05-03T10:18:31;96745.88;;;13.66;69.10
33454;BME280;39400;49.744;7.012;2023-05-03T10:21:01;96748.22;;;13.46;70.06
33454;BME280;39400;49.744;7.012;2023-05-03T10:23:28;96730.06;;;13.52;69.59
33454;BME280;39400;49.744;7.012;2023-05-03T10:28:32;96729.19;;;13.23;72.56
33454;BME280;39400;49.744;7.012;2023-05-03T10:30:57;96738.66;;;13.18;72.19
33454;BME280;39400;49.744;7.012;2023-05-03T10:33:30;96730.44;;;13.25;72.93
33454;BME280;39400;49.744;7.012;2023-05-03T10:35:57;96736.75;;;13.37;71.79
33454;BME280;39400;49.744;7.012;2023-05-03T10:38:25;96731.63;;;13.67;70.25
33454;BME280;39400;49.744;7.012;2023-05-03T10:40:51;96734.03;;;13.51;70.17
33454;BME280;39400;49.744;7.012;2023-05-03T10:46:04;96728.50;;;13.72;64.17
33454;BME280;39400;49.744;7.012;2023-05-03T10:48:33;96732.44;;;13.71;66.19
33454;BME280;39400;49.744;7.012;2023-05-03T10:53:52;96736.78;;;13.79;66.58
33454;BME280;39400;49.744;7.012;2023-05-03T10:56:17;96734.00;;;14.01;65.74
33454;BME280;39400;49.744;7.012;2023-05-03T10:58:44;96736.38;;;13.92;67.07
33454;BME280;39400;49.744;7.012;2023-05-03T11:01:11;96736.31;;;14.35;64.93
33454;BME280;39400;49.744;7.012;2023-05-03T11:03:47;96723.72;;;14.12;63.28
33454;BME280;39400;49.744;7.012;2023-05-03T11:06:30;96725.31;;;13.99;66.22
33454;BME280;39400;49.744;7.012;2023-05-03T11:08:55;96718.19;;;14.12;63.13
33454;BME280;39400;49.744;7.012;2023-05-03T11:11:21;96721.72;;;14.31;63.93
33454;BME280;39400;49.744;7.012;2023-05-03T11:13:49;96711.84;;;14.22;64.08
33454;BME280;39400;49.744;7.012;2023-05-03T11:16:14;96705.03;;;14.59;63.42
33454;BME280;39400;49.744;7.012;2023-05-03T11:18:40;96701.53;;;14.34;67.07
33454;BME280;39400;49.744;7.012;2023-05-03T11:21:05;96713.41;;;14.31;68.25
33454;BME280;39400;49.744;7.012;2023-05-03T11:23:30;96706.22;;;14.55;66.91
33454;BME280;39400;49.744;7.012;2023-05-03T11:25:56;96709.81;;;14.55;66.30
33454;BME280;39400;49.744;7.012;2023-05-03T11:28:21;96699.69;;;15.01;59.58
33454;BME280;39400;49.744;7.012;2023-05-03T11:30:46;96697.50;;;14.63;64.52
33454;BME280;39400;49.744;7.012;2023-05-03T11:33:12;96688.63;;;15.01;59.21
33454;BME280;39400;49.744;7.012;2023-05-03T11:35:37;96703.69;;;14.89;63.82
33454;BME280;39400;49.744;7.012;2023-05-03T11:38:03;96698.91;;;15.04;61.96
33454;BME280;39400;49.744;7.012;2023-05-03T11:40:28;96697.34;;;14.95;60.94
33454;BME280;39400;49.744;7.012;2023-05-03T11:42:55;96701.38;;;14.80;58.15
33454;BME280;39400;49.744;7.012;2023-05-03T11:45:25;96692.75;;;14.67;64.89
33454;BME280;39400;49.744;7.012;2023-05-03T11:47:51;96702.00;;;15.09;65.96
33454;BME280;39400;49.744;7.012;2023-05-03T11:50:19;96699.16;;;15.23;61.92
33454;BME280;39400;49.744;7.012;2023-05-03T11:52:50;96701.16;;;15.19;62.78
33454;BME280;39400;49.744;7.012;2023-05-03T11:55:16;96696.22;;;15.49;54.81
33454;BME280;39400;49.744;7.012;2023-05-03T11:57:41;96694.84;;;15.15;59.28
33454;BME280;39400;49.744;7.012;2023-05-03T12:00:13;96691.28;;;15.18;61.29
33454;BME280;39400;49.744;7.012;2023-05-03T12:02:39;96696.09;;;15.66;53.08
33454;BME280;39400;49.744;7.012;2023-05-03T12:05:05;96691.47;;;15.49;54.21
33454;BME280;39400;49.744;7.012;2023-05-03T12:07:30;96694.34;;;15.35;54.20
33454;BME280;39400;49.744;7.012;2023-05-03T12:09:55;96691.63;;;15.28;61.10
33454;BME280;39400;49.744;7.012;2023-05-03T12:12:21;96697.16;;;15.28;57.71
33454;BME280;39400;49.744;7.012;2023-05-03T12:14:59;96696.25;;;15.45;60.15
33454;BME280;39400;49.744;7.012;2023-05-03T12:17:38;96687.28;;;15.79;55.69
33454;BME280;39400;49.744;7.012;2023-05-03T12:20:18;96687.31;;;15.75;53.57
33454;BME280;39400;49.744;7.012;2023-05-03T12:22:47;96694.78;;;15.82;54.17
33454;BME280;39400;49.744;7.012;2023-05-03T12:25:12;96684.34;;;15.44;57.90
33454;BME280;39400;49.744;7.012;2023-05-03T12:27:38;96682.63;;;15.61;57.24
33454;BME280;39400;49.744;7.012;2023-05-03T12:30:03;96680.16;;;15.78;53.71
33454;BME280;39400;49.744;7.012;2023-05-03T12:32:29;96677.41;;;15.74;55.21
33454;BME280;39400;49.744;7.012;2023-05-03T12:34:55;96684.78;;;15.91;53.17
33454;BME280;39400;49.744;7.012;2023-05-03T12:37:20;96679.59;;;15.97;54.26
33454;BME280;39400;49.744;7.012;2023-05-03T12:39:45;96669.41;;;16.25;54.51
33454;BME280;39400;49.744;7.012;2023-05-03T12:42:10;96670.94;;;16.29;53.82
33454;BME280;39400;49.744;7.012;2023-05-03T12:44:38;96671.22;;;16.69;47.09
33454;BME280;39400;49.744;7.012;2023-05-03T12:47:03;96667.84;;;16.54;47.63
33454;BME280;39400;49.744;7.012;2023-05-03T12:49:28;96672.28;;;16.48;51.10
33454;BME280;39400;49.744;7.012;2023-05-03T12:51:54;96675.53;;;16.43;49.92
33454;BME280;39400;49.744;7.012;2023-05-03T12:54:19;96668.41;;;16.42;49.95
33454;BME280;39400;49.744;7.012;2023-05-03T12:56:44;96654.78;;;16.51;52.26
33454;BME280;39400;49.744;7.012;2023-05-03T12:59:09;96657.88;;;16.60;50.65
33454;BME280;39400;49.744;7.012;2023-05-03T13:01:35;96647.41;;;17.02;49.11
33454;BME280;39400;49.744;7.012;2023-05-03T13:04:00;96647.34;;;16.79;51.71
33454;BME280;39400;49.744;7.012;2023-05-03T13:06:25;96647.97;;;16.90;51.39
33454;BME280;39400;49.744;7.012;2023-05-03T13:08:51;96651.75;;;17.03;49.85
33454;BME280;39400;49.744;7.012;2023-05-03T13:11:16;96643.63;;;17.43;48.65
33454;BME280;39400;49.744;7.012;2023-05-03T13:13:41;96649.53;;;17.45;46.55
33454;BME280;39400;49.744;7.012;2023-05-03T13:16:07;96649.63;;;17.38;46.50
33454;BME280;39400;49.744;7.012;2023-05-03T13:18:33;96641.91;;;17.26;46.22
33454;BME280;39400;49.744;7.012;2023-05-03T13:20:59;96644.25;;;17.27;47.23